createdAt,value
2022-10-12T00:00:07.103Z,11.54
2022-10-12T00:01:07.016Z,11.56
2022-10-12T00:02:06.974Z,11.57
2022-10-12T00:03:06.855Z,11.59
2022-10-12T00:04:06.779Z,11.57
2022-10-12T00:05:06.695Z,11.65
2022-10-12T00:06:06.620Z,11.61
2022-10-12T00:07:06.539Z,11.61
2022-10-12T00:08:06.461Z,11.67
2022-10-12T00:09:06.405Z,11.64
2022-10-12T00:10:06.305Z,11.64
2022-10-12T00:11:06.220Z,11.54
2022-10-12T00:12:06.142Z,11.59
2022-10-12T00:13:06.059Z,11.57
2022-10-12T00:14:05.981Z,11.59
2022-10-12T00:15:05.904Z,11.64
2022-10-12T00:16:05.827Z,11.51
2022-10-12T00:17:05.742Z,11.57
2022-10-12T00:18:05.666Z,11.50
2022-10-12T00:19:05.585Z,11.64
2022-10-12T00:20:05.503Z,11.54
2022-10-12T00:21:05.426Z,11.51
2022-10-12T00:22:05.350Z,11.60
2022-10-12T00:23:05.269Z,11.61
2022-10-12T00:24:05.184Z,11.57
2022-10-12T00:25:05.108Z,11.56
2022-10-12T00:26:05.031Z,11.51
2022-10-12T00:27:04.947Z,11.54
2022-10-12T00:28:04.867Z,11.59
2022-10-12T00:29:04.790Z,11.59
2022-10-12T00:30:04.706Z,11.54
2022-10-12T00:31:04.625Z,11.56
2022-10-12T00:32:04.556Z,11.59
2022-10-12T00:33:04.474Z,11.60
2022-10-12T00:34:04.398Z,11.54
2022-10-12T00:35:04.308Z,11.54
2022-10-12T00:36:04.231Z,11.64
2022-10-12T00:37:04.148Z,11.57
2022-10-12T00:38:04.073Z,11.60
2022-10-12T00:39:03.993Z,11.54
2022-10-12T00:40:03.911Z,11.59
2022-10-12T00:41:03.829Z,11.60
2022-10-12T00:42:03.756Z,11.57
2022-10-12T00:43:03.674Z,11.49
2022-10-12T00:44:03.591Z,11.42
2022-10-12T00:45:03.512Z,11.36
2022-10-12T00:46:03.436Z,11.28
2022-10-12T00:47:03.351Z,11.32
2022-10-12T00:48:03.280Z,11.34
2022-10-12T00:49:03.198Z,11.35
2022-10-12T00:50:03.121Z,11.31
2022-10-12T00:51:03.032Z,11.23
2022-10-12T00:52:02.955Z,11.35
2022-10-12T00:53:02.878Z,11.28
2022-10-12T00:54:02.794Z,11.34
2022-10-12T00:55:02.718Z,11.36
2022-10-12T00:56:02.635Z,11.31
2022-10-12T00:57:02.556Z,11.36
2022-10-12T00:58:02.480Z,11.24
2022-10-12T00:59:02.393Z,11.31
2022-10-12T01:00:02.321Z,11.32
2022-10-12T01:01:02.323Z,11.35
2022-10-12T01:02:02.158Z,11.35
2022-10-12T01:03:02.078Z,11.36
2022-10-12T01:04:01.997Z,11.31
2022-10-12T01:05:01.914Z,11.11
2022-10-12T01:06:01.837Z,11.10
2022-10-12T01:07:01.756Z,11.10
2022-10-12T01:08:01.676Z,11.13
2022-10-12T01:09:01.596Z,11.02
2022-10-12T01:10:01.523Z,11.06
2022-10-12T01:11:01.438Z,11.13
2022-10-12T01:12:01.362Z,11.11
2022-10-12T01:13:01.281Z,11.11
2022-10-12T01:14:01.208Z,11.14
2022-10-12T01:15:01.118Z,11.08
2022-10-12T01:16:01.040Z,11.10
2022-10-12T01:17:00.964Z,11.08
2022-10-12T01:18:00.877Z,11.03
2022-10-12T01:19:00.796Z,11.03
2022-10-12T01:20:00.720Z,11.16
2022-10-12T01:21:00.640Z,11.08
2022-10-12T01:22:00.563Z,11.06
2022-10-12T01:23:00.484Z,10.98
2022-10-12T01:24:00.403Z,10.92
2022-10-12T01:25:00.322Z,10.87
2022-10-12T01:26:00.242Z,10.78
2022-10-12T01:27:00.162Z,10.67
2022-10-12T01:28:00.092Z,10.69
2022-10-12T01:29:00.008Z,10.73
2022-10-12T01:29:59.922Z,10.75
2022-10-12T01:30:59.838Z,10.67
2022-10-12T01:31:59.762Z,10.80
2022-10-12T01:32:59.678Z,10.74
2022-10-12T01:33:59.601Z,10.71
2022-10-12T01:34:59.518Z,10.74
2022-10-12T01:35:59.441Z,10.80
2022-10-12T01:36:59.362Z,10.80
2022-10-12T01:37:59.285Z,10.71
2022-10-12T01:38:59.201Z,10.74
2022-10-12T01:39:59.122Z,10.65
2022-10-12T01:40:59.042Z,10.63
2022-10-12T01:41:58.963Z,10.58
2022-10-12T01:42:58.882Z,10.62
2022-10-12T01:43:58.802Z,10.53
2022-10-12T01:44:58.721Z,10.59
2022-10-12T01:45:58.639Z,10.51
2022-10-12T01:46:58.556Z,10.55
2022-10-12T01:47:58.482Z,10.58
2022-10-12T01:48:58.403Z,10.59
2022-10-12T01:49:58.320Z,10.65
2022-10-12T01:50:58.243Z,10.62
2022-10-12T01:51:58.161Z,10.67
2022-10-12T01:52:58.081Z,10.63
2022-10-12T01:53:58.003Z,10.67
2022-10-12T01:54:57.919Z,10.77
2022-10-12T01:55:57.838Z,10.66
2022-10-12T01:56:57.758Z,10.69
2022-10-12T01:57:57.684Z,10.67
2022-10-12T01:58:57.601Z,10.73
2022-10-12T01:59:57.523Z,10.59
2022-10-12T02:00:57.465Z,10.60
2022-10-12T02:01:57.358Z,10.63
2022-10-12T02:02:57.282Z,10.58
2022-10-12T02:03:57.202Z,10.65
2022-10-12T02:04:57.119Z,10.59
2022-10-12T02:05:57.042Z,10.58
2022-10-12T02:06:56.957Z,10.60
2022-10-12T02:07:56.880Z,10.55
2022-10-12T02:08:56.806Z,10.51
2022-10-12T02:09:56.725Z,10.26
2022-10-12T02:10:56.638Z,10.13
2022-10-12T02:11:56.558Z,10.01
2022-10-12T02:12:56.480Z,10.06
2022-10-12T02:13:56.398Z,10.18
2022-10-12T02:14:56.315Z,10.18
2022-10-12T02:15:56.234Z,10.10
2022-10-12T02:16:56.160Z,10.11
2022-10-12T02:17:56.073Z,10.23
2022-10-12T02:18:55.997Z,10.22
2022-10-12T02:19:55.918Z,10.10
2022-10-12T02:20:55.834Z,10.01
2022-10-12T02:21:55.763Z,9.83
2022-10-12T02:22:55.675Z,9.80
2022-10-12T02:23:55.592Z,9.75
2022-10-12T02:24:55.519Z,9.83
2022-10-12T02:25:55.437Z,9.83
2022-10-12T02:26:55.355Z,9.79
2022-10-12T02:27:55.273Z,9.89
2022-10-12T02:28:55.257Z,9.92
2022-10-12T02:29:55.115Z,9.93
2022-10-12T02:30:55.032Z,9.96
2022-10-12T02:31:54.950Z,9.89
2022-10-12T02:32:54.870Z,10.01
2022-10-12T02:33:54.798Z,10.10
2022-10-12T02:34:54.717Z,10.06
2022-10-12T02:35:54.636Z,10.07
2022-10-12T02:36:54.554Z,10.11
2022-10-12T02:37:54.474Z,10.13
2022-10-12T02:38:54.391Z,10.19
2022-10-12T02:39:54.322Z,10.19
2022-10-12T02:40:54.234Z,10.10
2022-10-12T02:41:54.150Z,10.13
2022-10-12T02:43:11.085Z,10.08
2022-10-12T02:43:53.991Z,10.19
2022-10-12T02:44:53.912Z,10.16
2022-10-12T02:45:53.829Z,10.07
2022-10-12T02:46:53.747Z,10.16
2022-10-12T02:47:53.667Z,10.11
2022-10-12T02:48:53.585Z,10.08
2022-10-12T02:49:53.508Z,10.03
2022-10-12T02:50:53.425Z,10.10
2022-10-12T02:51:53.345Z,9.93
2022-10-12T02:52:53.270Z,9.85
2022-10-12T02:53:53.185Z,9.89
2022-10-12T02:54:53.103Z,9.79
2022-10-12T02:55:53.025Z,9.89
2022-10-12T02:56:52.945Z,9.85
2022-10-12T02:57:52.863Z,9.85
2022-10-12T02:58:52.782Z,9.92
2022-10-12T02:59:52.704Z,9.93
2022-10-12T03:00:52.663Z,9.89
2022-10-12T03:01:52.544Z,9.89
2022-10-12T03:02:52.462Z,9.96
2022-10-12T03:03:52.379Z,9.85
2022-10-12T03:04:52.302Z,9.85
2022-10-12T03:05:52.220Z,9.83
2022-10-12T03:06:52.142Z,9.71
2022-10-12T03:07:52.055Z,9.67
2022-10-12T03:08:51.977Z,9.65
2022-10-12T03:09:51.898Z,9.63
2022-10-12T03:10:51.825Z,9.65
2022-10-12T03:11:51.738Z,9.49
2022-10-12T03:12:51.671Z,9.40
2022-10-12T03:13:51.574Z,9.38
2022-10-12T03:14:51.496Z,9.37
2022-10-12T03:15:51.414Z,9.38
2022-10-12T03:16:51.334Z,9.38
2022-10-12T03:17:51.252Z,9.38
2022-10-12T03:18:51.171Z,9.49
2022-10-12T03:19:51.091Z,9.38
2022-10-12T03:20:51.011Z,9.53
2022-10-12T03:21:50.929Z,9.56
2022-10-12T03:22:50.850Z,9.52
2022-10-12T03:23:50.773Z,9.55
2022-10-12T03:24:50.692Z,9.63
2022-10-12T03:25:50.606Z,9.56
2022-10-12T03:26:50.526Z,9.61
2022-10-12T03:27:50.445Z,9.55
2022-10-12T03:28:50.405Z,9.49
2022-10-12T03:29:50.297Z,9.55
2022-10-12T03:30:50.203Z,9.53
2022-10-12T03:31:50.122Z,9.53
2022-10-12T03:32:50.042Z,9.52
2022-10-12T03:33:49.962Z,9.43
2022-10-12T03:34:49.883Z,9.50
2022-10-12T03:35:49.798Z,9.50
2022-10-12T03:36:49.721Z,9.43
2022-10-12T03:37:49.639Z,9.42
2022-10-12T03:38:49.558Z,9.35
2022-10-12T03:39:49.481Z,9.25
2022-10-12T03:40:49.397Z,9.22
2022-10-12T03:41:49.317Z,9.12
2022-10-12T03:42:49.237Z,9.06
2022-10-12T03:43:49.152Z,9.03
2022-10-12T03:44:49.082Z,8.98
2022-10-12T03:45:48.996Z,9.06
2022-10-12T03:46:48.921Z,9.00
2022-10-12T03:47:48.834Z,8.98
2022-10-12T03:48:48.755Z,8.98
2022-10-12T03:49:48.672Z,8.93
2022-10-12T03:50:48.589Z,8.80
2022-10-12T03:51:48.512Z,8.80
2022-10-12T03:52:48.432Z,8.77
2022-10-12T03:53:48.350Z,8.77
2022-10-12T03:54:48.272Z,8.90
2022-10-12T03:55:48.186Z,8.79
2022-10-12T03:56:48.107Z,8.77
2022-10-12T03:57:48.030Z,8.79
2022-10-12T03:58:47.953Z,8.82
2022-10-12T03:59:47.863Z,8.85
2022-10-12T04:00:47.786Z,8.82
2022-10-12T04:01:47.825Z,8.87
2022-10-12T04:02:47.620Z,8.90
2022-10-12T04:03:47.538Z,8.85
2022-10-12T04:04:47.491Z,8.82
2022-10-12T04:05:47.379Z,8.72
2022-10-12T04:06:47.293Z,8.62
2022-10-12T04:07:47.220Z,8.51
2022-10-12T04:08:50.621Z,8.44
2022-10-12T04:09:47.052Z,8.51
2022-10-12T04:10:46.970Z,8.52
2022-10-12T04:11:46.890Z,8.60
2022-10-12T04:12:46.810Z,8.58
2022-10-12T04:13:46.727Z,8.55
2022-10-12T04:14:46.646Z,8.54
2022-10-12T04:15:46.571Z,8.54
2022-10-12T04:16:46.490Z,8.36
2022-10-12T04:17:46.410Z,8.32
2022-10-12T04:18:46.325Z,8.22
2022-10-12T04:19:46.245Z,8.24
2022-10-12T04:20:46.160Z,8.21
2022-10-12T04:21:46.082Z,8.21
2022-10-12T04:22:45.998Z,8.30
2022-10-12T04:23:45.918Z,8.29
2022-10-12T04:24:45.835Z,8.32
2022-10-12T04:25:45.757Z,8.44
2022-10-12T04:26:45.679Z,8.37
2022-10-12T04:27:45.592Z,8.27
2022-10-12T04:28:45.627Z,8.27
2022-10-12T04:29:45.434Z,8.21
2022-10-12T04:30:45.350Z,8.24
2022-10-12T04:31:45.279Z,8.21
2022-10-12T04:32:45.189Z,8.21
2022-10-12T04:33:45.110Z,8.21
2022-10-12T04:34:45.034Z,8.22
2022-10-12T04:35:44.944Z,8.22
2022-10-12T04:36:44.865Z,8.29
2022-10-12T04:37:44.782Z,8.29
2022-10-12T04:38:44.702Z,8.24
2022-10-12T04:39:44.621Z,8.22
2022-10-12T04:40:44.542Z,8.18
2022-10-12T04:41:44.453Z,8.24
2022-10-12T04:42:44.376Z,8.32
2022-10-12T04:43:44.294Z,8.37
2022-10-12T04:44:44.209Z,8.34
2022-10-12T04:45:44.128Z,8.37
2022-10-12T04:46:44.047Z,8.39
2022-10-12T04:47:43.965Z,8.27
2022-10-12T04:48:43.884Z,8.25
2022-10-12T04:49:43.808Z,8.24
2022-10-12T04:50:43.730Z,8.22
2022-10-12T04:51:43.641Z,8.25
2022-10-12T04:52:43.559Z,8.18
2022-10-12T04:53:43.478Z,8.21
2022-10-12T04:54:43.399Z,8.17
2022-10-12T04:55:43.317Z,8.24
2022-10-12T04:56:47.649Z,8.29
2022-10-12T04:57:43.156Z,8.39
2022-10-12T04:58:43.069Z,8.33
2022-10-12T04:59:42.992Z,8.39
2022-10-12T05:00:42.907Z,8.32
2022-10-12T05:01:42.903Z,8.37
2022-10-12T05:02:42.748Z,8.36
2022-10-12T05:03:42.666Z,8.43
2022-10-12T05:04:42.592Z,8.27
2022-10-12T05:05:42.506Z,8.29
2022-10-12T05:06:42.418Z,8.34
2022-10-12T05:07:42.343Z,8.43
2022-10-12T05:08:42.255Z,8.36
2022-10-12T05:09:42.183Z,8.40
2022-10-12T05:10:42.095Z,8.43
2022-10-12T05:11:42.013Z,8.57
2022-10-12T05:12:41.933Z,8.60
2022-10-12T05:13:41.850Z,8.61
2022-10-12T05:14:41.767Z,8.60
2022-10-12T05:15:41.691Z,8.75
2022-10-12T05:16:41.606Z,8.75
2022-10-12T05:17:41.528Z,8.80
2022-10-12T05:18:41.441Z,8.80
2022-10-12T05:19:41.364Z,8.84
2022-10-12T05:20:41.285Z,8.93
2022-10-12T05:21:41.201Z,8.95
2022-10-12T05:22:41.118Z,9.00
2022-10-12T05:23:41.038Z,8.97
2022-10-12T05:24:40.957Z,9.03
2022-10-12T05:25:40.878Z,9.02
2022-10-12T05:26:40.795Z,9.06
2022-10-12T05:27:41.069Z,9.09
2022-10-12T05:28:41.363Z,9.09
2022-10-12T05:29:40.552Z,9.03
2022-10-12T05:30:40.467Z,9.14
2022-10-12T05:31:40.387Z,9.20
2022-10-12T05:32:40.664Z,9.19
2022-10-12T05:33:40.224Z,9.28
2022-10-12T05:34:40.143Z,9.24
2022-10-12T05:35:42.857Z,9.27
2022-10-12T05:36:39.984Z,9.12
2022-10-12T05:37:40.395Z,9.17
2022-10-12T05:38:39.817Z,9.24
2022-10-12T05:39:39.737Z,9.34
2022-10-12T05:40:39.655Z,9.35
2022-10-12T05:41:39.579Z,9.34
2022-10-12T05:42:39.820Z,9.29
2022-10-12T05:43:39.417Z,9.37
2022-10-12T05:44:39.329Z,9.40
2022-10-12T05:45:39.253Z,9.37
2022-10-12T05:46:39.166Z,9.34
2022-10-12T05:47:39.374Z,9.37
2022-10-12T05:48:39.007Z,9.49
2022-10-12T05:49:38.927Z,9.50
2022-10-12T05:50:38.840Z,9.42
2022-10-12T05:51:38.770Z,9.53
2022-10-12T05:52:38.950Z,9.53
2022-10-12T05:53:38.599Z,9.55
2022-10-12T05:54:38.521Z,9.58
2022-10-12T05:55:38.435Z,9.58
2022-10-12T05:56:38.355Z,9.53
2022-10-12T05:57:38.279Z,9.56
2022-10-12T05:58:38.192Z,9.53
2022-10-12T05:59:38.122Z,9.53
2022-10-12T06:00:38.032Z,9.64
2022-10-12T06:01:37.986Z,9.67
2022-10-12T06:02:38.211Z,9.56
2022-10-12T06:03:37.794Z,9.71
2022-10-12T06:04:37.710Z,9.65
2022-10-12T06:05:37.629Z,9.65
2022-10-12T06:06:37.546Z,9.78
2022-10-12T06:07:37.465Z,9.74
2022-10-12T06:08:37.385Z,9.71
2022-10-12T06:09:37.305Z,9.80
2022-10-12T06:10:37.252Z,9.80
2022-10-12T06:11:37.143Z,9.83
2022-10-12T06:12:37.382Z,9.89
2022-10-12T06:13:36.984Z,9.80
2022-10-12T06:14:36.900Z,9.79
2022-10-12T06:15:36.822Z,9.92
2022-10-12T06:16:36.739Z,9.98
2022-10-12T06:17:36.659Z,9.96
2022-10-12T06:18:36.576Z,10.01
2022-10-12T06:19:36.500Z,10.00
2022-10-12T06:20:36.412Z,10.04
2022-10-12T06:21:36.331Z,9.92
2022-10-12T06:22:36.687Z,9.93
2022-10-12T06:23:36.171Z,9.96
2022-10-12T06:24:36.097Z,9.92
2022-10-12T06:25:36.013Z,10.00
2022-10-12T06:26:35.930Z,10.10
2022-10-12T06:27:35.853Z,10.08
2022-10-12T06:28:35.835Z,10.10
2022-10-12T06:29:35.688Z,10.08
2022-10-12T06:30:35.610Z,10.03
2022-10-12T06:31:35.524Z,10.07
2022-10-12T06:32:35.785Z,10.19
2022-10-12T06:33:35.360Z,10.15
2022-10-12T06:34:35.286Z,10.21
2022-10-12T06:35:35.200Z,10.16
2022-10-12T06:36:35.121Z,10.22
2022-10-12T06:37:49.596Z,10.21
2022-10-12T06:38:34.961Z,10.23
2022-10-12T06:39:34.876Z,10.26
2022-10-12T06:40:34.802Z,10.28
2022-10-12T06:41:34.719Z,10.21
2022-10-12T06:42:34.638Z,10.28
2022-10-12T06:43:34.559Z,10.33
2022-10-12T06:44:34.473Z,10.29
2022-10-12T06:45:34.397Z,10.33
2022-10-12T06:46:34.317Z,10.33
2022-10-12T06:47:34.237Z,10.43
2022-10-12T06:48:34.150Z,10.39
2022-10-12T06:49:34.071Z,10.37
2022-10-12T06:50:33.992Z,10.41
2022-10-12T06:51:33.929Z,10.55
2022-10-12T06:52:33.868Z,10.47
2022-10-12T06:53:33.757Z,10.44
2022-10-12T06:54:33.669Z,10.63
2022-10-12T06:55:33.603Z,10.51
2022-10-12T06:56:33.513Z,10.55
2022-10-12T06:57:33.438Z,10.60
2022-10-12T06:58:33.347Z,10.71
2022-10-12T06:59:33.267Z,10.67
2022-10-12T07:00:33.191Z,10.74
2022-10-12T07:01:33.172Z,10.80
2022-10-12T07:02:33.042Z,10.84
2022-10-12T07:03:32.944Z,10.85
2022-10-12T07:04:32.868Z,10.84
2022-10-12T07:05:32.786Z,10.87
2022-10-12T07:06:32.705Z,10.87
2022-10-12T07:07:32.650Z,10.88
2022-10-12T07:08:32.558Z,10.87
2022-10-12T07:09:32.476Z,11.02
2022-10-12T07:10:32.387Z,11.02
2022-10-12T07:11:32.321Z,11.06
2022-10-12T07:12:32.227Z,11.03
2022-10-12T07:13:32.151Z,11.06
2022-10-12T07:14:32.058Z,11.10
2022-10-12T07:15:31.981Z,11.06
2022-10-12T07:16:31.902Z,11.16
2022-10-12T07:17:31.822Z,11.20
2022-10-12T07:18:31.743Z,11.18
2022-10-12T07:19:31.657Z,11.28
2022-10-12T07:20:31.585Z,11.23
2022-10-12T07:21:31.506Z,11.29
2022-10-12T07:22:31.426Z,11.34
2022-10-12T07:23:31.345Z,11.36
2022-10-12T07:24:31.256Z,11.31
2022-10-12T07:25:31.183Z,11.43
2022-10-12T07:26:31.099Z,11.41
2022-10-12T07:27:31.203Z,11.54
2022-10-12T07:28:31.006Z,11.53
2022-10-12T07:29:30.858Z,11.49
2022-10-12T07:30:30.777Z,11.57
2022-10-12T07:31:30.720Z,11.54
2022-10-12T07:32:30.627Z,11.64
2022-10-12T07:33:30.535Z,11.53
2022-10-12T07:34:30.452Z,11.59
2022-10-12T07:35:30.386Z,11.53
2022-10-12T07:36:47.346Z,11.71
2022-10-12T07:37:30.219Z,11.69
2022-10-12T07:38:30.136Z,11.67
2022-10-12T07:39:30.062Z,11.75
2022-10-12T07:40:29.973Z,11.81
2022-10-12T07:41:29.898Z,11.84
2022-10-12T07:42:29.837Z,11.90
2022-10-12T07:43:29.746Z,11.90
2022-10-12T07:44:29.673Z,11.79
2022-10-12T07:45:29.579Z,11.83
2022-10-12T07:46:29.512Z,11.89
2022-10-12T07:47:29.429Z,11.97
2022-10-12T07:48:29.335Z,11.86
2022-10-12T07:49:29.256Z,11.86
2022-10-12T07:50:29.180Z,11.93
2022-10-12T07:51:29.101Z,11.94
2022-10-12T07:52:29.020Z,11.97
2022-10-12T07:53:28.944Z,12.02
2022-10-12T07:54:29.643Z,11.95
2022-10-12T07:55:28.783Z,12.05
2022-10-12T07:56:28.704Z,12.06
2022-10-12T07:57:28.623Z,12.13
2022-10-12T07:58:28.543Z,12.19
2022-10-12T07:59:28.455Z,12.24
2022-10-12T08:00:28.398Z,12.11
2022-10-12T08:01:28.350Z,12.24
2022-10-12T08:02:28.216Z,12.41
2022-10-12T08:03:28.148Z,12.51
2022-10-12T08:04:28.060Z,12.53
2022-10-12T08:05:27.991Z,12.63
2022-10-12T08:06:27.905Z,12.60
2022-10-12T08:07:27.821Z,12.60
2022-10-12T08:08:27.747Z,12.52
2022-10-12T08:09:27.657Z,12.60
2022-10-12T08:10:27.585Z,12.67
2022-10-12T08:11:27.511Z,12.74
2022-10-12T08:12:27.419Z,12.92
2022-10-12T08:13:27.347Z,13.14
2022-10-12T08:14:27.260Z,13.22
2022-10-12T08:15:27.184Z,13.24
2022-10-12T08:16:27.120Z,13.33
2022-10-12T08:17:27.033Z,13.44
2022-10-12T08:18:26.953Z,13.55
2022-10-12T08:19:28.186Z,13.62
2022-10-12T08:20:26.797Z,13.84
2022-10-12T08:21:26.715Z,14.01
2022-10-12T08:22:26.632Z,14.17
2022-10-12T08:23:26.563Z,14.19
2022-10-12T08:24:26.472Z,14.05
2022-10-12T08:25:26.399Z,14.11
2022-10-12T08:26:26.324Z,14.03
2022-10-12T08:27:26.233Z,13.96
2022-10-12T08:28:26.212Z,13.86
2022-10-12T08:29:26.075Z,13.86
2022-10-12T08:30:26.004Z,13.83
2022-10-12T08:31:25.922Z,13.83
2022-10-12T08:32:25.851Z,13.78
2022-10-12T08:33:25.767Z,13.95
2022-10-12T08:34:25.679Z,14.03
2022-10-12T08:35:25.617Z,14.23
2022-10-12T08:36:25.531Z,14.14
2022-10-12T08:37:25.463Z,14.19
2022-10-12T08:38:25.369Z,14.29
2022-10-12T08:39:25.288Z,14.27
2022-10-12T08:40:25.220Z,14.21
2022-10-12T08:41:25.144Z,14.21
2022-10-12T08:42:25.049Z,14.19
2022-10-12T08:43:24.980Z,14.17
2022-10-12T08:44:24.895Z,14.27
2022-10-12T08:45:30.060Z,14.36
2022-10-12T08:46:24.733Z,14.46
2022-10-12T08:47:24.667Z,14.47
2022-10-12T08:48:24.595Z,14.52
2022-10-12T08:49:24.501Z,14.52
2022-10-12T08:50:24.421Z,14.46
2022-10-12T08:51:24.343Z,14.46
2022-10-12T08:52:24.276Z,14.47
2022-10-12T08:53:24.193Z,14.44
2022-10-12T08:54:24.106Z,14.46
2022-10-12T08:55:24.026Z,14.44
2022-10-12T08:56:23.957Z,14.47
2022-10-12T08:57:23.869Z,14.35
2022-10-12T08:58:23.798Z,14.44
2022-10-12T08:59:23.714Z,14.36
2022-10-12T09:00:23.710Z,14.49
2022-10-12T09:01:23.604Z,14.52
2022-10-12T09:02:23.486Z,14.42
2022-10-12T09:03:23.408Z,14.41
2022-10-12T09:04:23.371Z,14.44
2022-10-12T09:05:23.240Z,14.49
2022-10-12T09:06:23.170Z,14.49
2022-10-12T09:08:23.078Z,14.35
2022-10-12T09:09:22.983Z,14.36
2022-10-12T09:10:22.914Z,14.35
2022-10-12T09:11:22.838Z,14.39
2022-10-12T09:12:22.758Z,14.44
2022-10-12T09:13:22.673Z,14.41
2022-10-12T09:14:43.567Z,14.44
2022-10-12T09:15:22.547Z,14.44
2022-10-12T09:16:22.447Z,14.36
2022-10-12T09:17:22.364Z,14.47
2022-10-12T09:18:22.282Z,14.47
2022-10-12T09:19:22.197Z,14.53
2022-10-12T09:20:43.105Z,14.52
2022-10-12T09:21:22.045Z,14.50
2022-10-12T09:22:21.974Z,14.59
2022-10-12T09:23:21.890Z,14.65
2022-10-12T09:24:21.803Z,14.68
2022-10-12T09:25:21.735Z,14.69
2022-10-12T09:26:42.640Z,14.79
2022-10-12T09:27:21.568Z,14.85
2022-10-12T09:28:21.561Z,14.90
2022-10-12T09:29:21.422Z,14.87
2022-10-12T09:30:21.341Z,14.95
2022-10-12T09:31:21.254Z,14.93
2022-10-12T09:32:42.165Z,15.01
2022-10-12T09:33:21.102Z,14.97
2022-10-12T09:34:21.025Z,14.97
2022-10-12T09:35:20.947Z,15.05
2022-10-12T09:36:20.872Z,15.09
2022-10-12T09:37:20.779Z,15.18
2022-10-12T09:38:41.698Z,15.13
2022-10-12T09:39:21.909Z,15.15
2022-10-12T09:40:20.563Z,15.13
2022-10-12T09:41:20.473Z,15.21
2022-10-12T09:42:20.394Z,15.23
2022-10-12T09:43:20.328Z,15.28
2022-10-12T09:44:41.221Z,15.35
2022-10-12T09:45:20.160Z,15.38
2022-10-12T09:46:20.114Z,15.46
2022-10-12T09:47:20.020Z,15.51
2022-10-12T09:48:19.942Z,15.42
2022-10-12T09:49:19.842Z,15.59
2022-10-12T09:50:40.766Z,15.63
2022-10-12T09:51:19.715Z,15.71
2022-10-12T09:52:19.614Z,15.79
2022-10-12T09:53:19.548Z,15.70
2022-10-12T09:54:19.471Z,15.68
2022-10-12T09:55:20.125Z,15.78
2022-10-12T09:56:40.308Z,15.61
2022-10-12T09:57:19.218Z,15.61
2022-10-12T09:58:19.156Z,15.71
2022-10-12T09:59:19.065Z,15.85
2022-10-12T10:00:19.382Z,15.96
2022-10-12T10:01:19.041Z,15.91
2022-10-12T10:02:39.817Z,16.01
2022-10-12T10:03:18.762Z,16.10
2022-10-12T10:04:18.701Z,16.18
2022-10-12T10:05:18.614Z,16.20
2022-10-12T10:06:18.544Z,16.12
2022-10-12T10:07:18.462Z,16.08
2022-10-12T10:08:39.362Z,16.04
2022-10-12T10:09:18.294Z,16.01
2022-10-12T10:10:18.528Z,16.06
2022-10-12T10:11:18.145Z,16.15
2022-10-12T10:12:18.075Z,16.26
2022-10-12T10:13:18.007Z,16.44
2022-10-12T10:14:38.891Z,16.44
2022-10-12T10:15:17.839Z,16.44
2022-10-12T10:16:17.755Z,16.37
2022-10-12T10:17:17.674Z,16.53
2022-10-12T10:18:17.626Z,16.70
2022-10-12T10:19:17.525Z,16.66
2022-10-12T10:20:38.425Z,16.66
2022-10-12T10:21:17.366Z,16.60
2022-10-12T10:22:17.294Z,16.78
2022-10-12T10:23:17.235Z,16.99
2022-10-12T10:24:17.144Z,17.11
2022-10-12T10:25:17.067Z,17.15
2022-10-12T10:26:37.957Z,17.18
2022-10-12T10:27:16.903Z,17.23
2022-10-12T10:28:16.894Z,17.14
2022-10-12T10:29:16.754Z,17.14
2022-10-12T10:30:30.075Z,17.11
2022-10-12T10:31:16.610Z,17.18
2022-10-12T10:32:37.501Z,17.23
2022-10-12T10:33:16.440Z,17.18
2022-10-12T10:34:16.367Z,17.36
2022-10-12T10:35:16.286Z,17.57
2022-10-12T10:36:16.229Z,17.70
2022-10-12T10:37:16.131Z,17.76
2022-10-12T10:38:37.042Z,17.95
2022-10-12T10:39:15.977Z,17.82
2022-10-12T10:40:16.102Z,17.79
2022-10-12T10:41:15.830Z,17.64
2022-10-12T10:42:15.756Z,17.55
2022-10-12T10:43:15.669Z,17.44
2022-10-12T10:44:36.640Z,17.26
2022-10-12T10:45:15.823Z,17.25
2022-10-12T10:46:15.462Z,17.15
2022-10-12T10:47:15.360Z,17.14
2022-10-12T10:48:15.300Z,16.99
2022-10-12T10:49:15.249Z,16.93
2022-10-12T10:50:36.129Z,16.98
2022-10-12T10:51:15.065Z,16.99
2022-10-12T10:52:14.982Z,17.00
2022-10-12T10:53:14.912Z,16.90
2022-10-12T10:54:14.830Z,16.88
2022-10-12T10:55:14.753Z,17.02
2022-10-12T10:56:35.679Z,16.96
2022-10-12T10:57:14.612Z,17.03
2022-10-12T10:58:14.527Z,17.10
2022-10-12T10:59:14.449Z,17.05
2022-10-12T11:00:37.265Z,17.15
2022-10-12T11:01:14.329Z,17.13
2022-10-12T11:02:35.199Z,17.20
2022-10-12T11:03:14.257Z,17.20
2022-10-12T11:04:14.079Z,17.26
2022-10-12T11:05:14.108Z,17.35
2022-10-12T11:06:13.935Z,17.32
2022-10-12T11:07:13.846Z,17.23
2022-10-12T11:08:34.738Z,17.32
2022-10-12T11:09:13.704Z,17.32
2022-10-12T11:10:13.615Z,17.39
2022-10-12T11:11:13.533Z,17.36
2022-10-12T11:12:13.454Z,17.50
2022-10-12T11:13:13.389Z,17.53
2022-10-12T11:14:34.304Z,17.53
2022-10-12T11:15:13.222Z,17.55
2022-10-12T11:16:13.158Z,17.60
2022-10-12T11:17:13.071Z,17.66
2022-10-12T11:18:13.013Z,17.58
2022-10-12T11:19:12.912Z,17.60
2022-10-12T11:20:33.846Z,17.60
2022-10-12T11:21:12.771Z,17.58
2022-10-12T11:22:12.686Z,17.67
2022-10-12T11:23:12.608Z,17.73
2022-10-12T11:24:12.547Z,17.67
2022-10-12T11:25:12.455Z,17.79
2022-10-12T11:26:33.372Z,17.84
2022-10-12T11:27:12.311Z,17.91
2022-10-12T11:28:12.272Z,17.95
2022-10-12T11:29:12.149Z,17.89
2022-10-12T11:30:12.223Z,17.92
2022-10-12T11:31:12.000Z,18.09
2022-10-12T11:32:32.900Z,18.06
2022-10-12T11:33:11.838Z,18.07
2022-10-12T11:34:13.631Z,18.04
2022-10-12T11:35:11.709Z,18.19
2022-10-12T11:36:11.631Z,18.32
2022-10-12T11:37:19.873Z,18.37
2022-10-12T11:38:32.450Z,18.43
2022-10-12T11:39:11.394Z,18.39
2022-10-12T11:40:11.323Z,18.55
2022-10-12T11:41:34.555Z,18.40
2022-10-12T11:42:21.361Z,18.40
2022-10-12T11:43:11.077Z,18.44
2022-10-12T11:44:31.991Z,18.42
2022-10-12T11:45:11.022Z,18.62
2022-10-12T11:46:10.855Z,18.74
2022-10-12T11:47:10.782Z,18.92
2022-10-12T11:48:10.726Z,18.92
2022-10-12T11:49:10.628Z,19.01
2022-10-12T11:50:31.543Z,18.99
2022-10-12T11:51:10.469Z,18.97
2022-10-12T11:52:10.399Z,18.89
2022-10-12T11:53:10.331Z,18.90
2022-10-12T11:54:10.250Z,18.86
2022-10-12T11:55:10.172Z,18.82
2022-10-12T11:56:31.081Z,18.79
2022-10-12T11:57:10.020Z,18.74
2022-10-12T11:58:13.554Z,18.71
2022-10-12T11:59:09.880Z,18.71
2022-10-12T12:00:09.799Z,18.68
2022-10-12T12:01:09.725Z,18.69
2022-10-12T12:02:30.624Z,18.58
2022-10-12T12:03:09.626Z,18.59
2022-10-12T12:04:36.596Z,18.57
2022-10-12T12:05:12.825Z,18.53
2022-10-12T12:06:09.351Z,18.55
2022-10-12T12:07:09.252Z,18.39
2022-10-12T12:08:30.177Z,18.27
2022-10-12T12:09:09.103Z,18.42
2022-10-12T12:10:09.039Z,18.43
2022-10-12T12:11:08.954Z,18.37
2022-10-12T12:12:08.925Z,18.40
2022-10-12T12:13:08.807Z,18.43
2022-10-12T12:14:29.702Z,18.40
2022-10-12T12:15:08.646Z,18.39
2022-10-12T12:16:08.585Z,18.34
2022-10-12T12:17:08.504Z,18.34
2022-10-12T12:18:08.436Z,18.28
2022-10-12T12:19:08.357Z,18.18
2022-10-12T12:20:29.263Z,18.07
2022-10-12T12:21:08.205Z,17.98
2022-10-12T12:22:08.117Z,17.96
2022-10-12T12:23:08.055Z,17.92
2022-10-12T12:24:07.972Z,17.89
2022-10-12T12:25:07.891Z,17.77
2022-10-12T12:26:28.805Z,17.87
2022-10-12T12:27:07.745Z,17.76
2022-10-12T12:28:07.668Z,17.79
2022-10-12T12:29:07.604Z,17.92
2022-10-12T12:30:07.522Z,17.96
2022-10-12T12:31:07.432Z,17.91
2022-10-12T12:32:28.365Z,17.91
2022-10-12T12:33:07.283Z,17.98
2022-10-12T12:34:07.200Z,18.02
2022-10-12T12:35:07.159Z,17.98
2022-10-12T12:36:07.056Z,17.98
2022-10-12T12:37:06.991Z,17.89
2022-10-12T12:38:27.887Z,17.79
2022-10-12T12:39:06.835Z,17.87
2022-10-12T12:40:06.762Z,17.85
2022-10-12T12:41:06.689Z,17.84
2022-10-12T12:42:06.609Z,17.84
2022-10-12T12:43:06.536Z,17.82
2022-10-12T12:44:27.470Z,17.77
2022-10-12T12:45:06.372Z,17.91
2022-10-12T12:46:06.303Z,17.88
2022-10-12T12:47:32.632Z,18.04
2022-10-12T12:48:06.149Z,18.07
2022-10-12T12:49:06.088Z,18.09
2022-10-12T12:50:26.982Z,18.09
2022-10-12T12:51:05.929Z,18.03
2022-10-12T12:52:05.834Z,18.06
2022-10-12T12:53:05.783Z,18.06
2022-10-12T12:54:05.706Z,18.16
2022-10-12T12:55:05.622Z,18.37
2022-10-12T12:56:26.534Z,18.50
2022-10-12T12:57:05.470Z,18.58
2022-10-12T12:58:05.391Z,18.67
2022-10-12T12:59:05.312Z,18.68